createdAt,value
2018-04-16T00:01:02.800Z,6.77
2018-04-16T00:04:06.110Z,5.17
2018-04-16T00:07:10.399Z,8.13
2018-04-16T00:10:13.799Z,6.70
2018-04-16T00:13:17.020Z,5.97
2018-04-16T00:16:20.293Z,7.30
2018-04-16T00:19:23.579Z,6.10
2018-04-16T00:22:26.807Z,4.53
2018-04-16T00:25:29.984Z,7.70
2018-04-16T00:28:33.276Z,5.57
2018-04-16T00:31:40.843Z,4.07
2018-04-16T00:35:48.553Z,5.47
2018-04-16T00:38:56.976Z,4.17
2018-04-16T00:43:07.399Z,4.70
2018-04-16T00:47:16.674Z,4.87
2018-04-16T00:51:29.109Z,4.10
2018-04-16T00:55:35.391Z,4.60
2018-04-16T00:59:45.627Z,4.90
2018-04-16T01:03:54.278Z,4.57
2018-04-16T01:08:00.554Z,4.43
2018-04-16T01:12:07.760Z,5.13
2018-04-16T01:16:14.078Z,3.98
2018-04-16T01:20:20.361Z,5.70
2018-04-16T01:24:26.623Z,4.87
2018-04-16T01:27:35.163Z,4.62
2018-04-16T01:31:44.469Z,7.00
2018-04-16T01:35:53.837Z,4.57
2018-04-16T01:40:02.363Z,4.73
2018-04-16T01:44:09.733Z,4.63
2018-04-16T01:48:16.229Z,4.73
2018-04-16T01:52:23.597Z,4.20
2018-04-16T01:56:33.018Z,6.30
2018-04-16T01:59:41.755Z,3.90
2018-04-16T02:02:50.453Z,5.53
2018-04-16T02:07:01.807Z,4.40
2018-04-16T02:11:12.221Z,4.47
2018-04-16T02:15:19.373Z,3.80
2018-04-16T02:18:27.903Z,4.33
2018-04-16T02:21:36.641Z,5.67
2018-04-16T02:25:44.249Z,6.83
2018-04-16T02:29:52.552Z,3.70
2018-04-16T02:33:58.919Z,4.23
2018-04-16T02:38:08.238Z,4.50
2018-04-16T02:41:16.925Z,5.30
2018-04-16T02:45:23.553Z,6.40
2018-04-16T02:48:32.221Z,4.57
2018-04-16T02:52:45.032Z,3.90
2018-04-16T02:56:55.290Z,4.90
2018-04-16T03:01:01.461Z,4.17
2018-04-16T03:04:09.980Z,5.23
2018-04-16T03:08:22.710Z,4.00
2018-04-16T03:12:31.427Z,5.50
2018-04-16T03:16:37.845Z,5.40
2018-04-16T03:20:44.442Z,4.12
2018-04-16T03:24:50.783Z,4.40
2018-04-16T03:28:57.280Z,4.40
2018-04-16T03:32:05.989Z,7.37
2018-04-16T03:36:16.638Z,5.03
2018-04-16T03:40:24.976Z,4.53
2018-04-16T03:44:32.516Z,7.65
2018-04-16T03:48:42.844Z,5.40
2018-04-16T03:51:46.340Z,6.12
2018-04-16T03:54:49.720Z,5.85
2018-04-16T03:57:53.080Z,5.03
2018-04-16T04:00:56.543Z,4.77
2018-04-16T04:03:59.751Z,7.87
2018-04-16T04:07:03.060Z,6.50
2018-04-16T04:10:06.364Z,6.93
2018-04-16T04:13:09.670Z,7.67
2018-04-16T04:16:12.954Z,6.80
2018-04-16T04:19:16.539Z,5.70
2018-04-16T04:22:20.891Z,4.30
2018-04-16T04:26:38.477Z,5.77
2018-04-16T04:30:31.266Z,8.03
2018-04-16T04:33:34.582Z,5.45
2018-04-16T04:36:37.844Z,6.40
2018-04-16T04:39:41.035Z,6.05
2018-04-16T04:42:44.366Z,5.53
2018-04-16T04:45:47.560Z,6.77
2018-04-16T04:48:50.933Z,6.60
2018-04-16T04:51:54.209Z,5.53
2018-04-16T04:54:57.615Z,6.73
2018-04-16T04:58:00.916Z,5.80
2018-04-16T05:01:04.219Z,5.60
2018-04-16T05:04:07.395Z,7.23
2018-04-16T05:07:10.727Z,7.83
2018-04-16T05:10:14.034Z,15.53
2018-04-16T05:13:17.330Z,15.73
2018-04-16T05:16:20.625Z,11.53
2018-04-16T05:19:23.909Z,16.67
2018-04-16T05:22:28.157Z,15.20
2018-04-16T05:25:31.429Z,15.13
2018-04-16T05:28:34.665Z,13.00
2018-04-16T05:31:37.925Z,11.57
2018-04-16T05:34:41.216Z,18.03
2018-04-16T05:37:44.526Z,15.83
2018-04-16T05:40:47.841Z,13.97
2018-04-16T05:43:51.112Z,18.63
2018-04-16T05:46:54.432Z,16.13
2018-04-16T05:49:58.760Z,15.87
2018-04-16T05:53:02.035Z,13.27
2018-04-16T05:56:05.363Z,12.37
2018-04-16T05:59:08.583Z,29.67
2018-04-16T06:02:11.824Z,19.77
2018-04-16T06:05:15.098Z,17.10
2018-04-16T06:08:18.300Z,15.60
2018-04-16T06:11:21.532Z,15.03
2018-04-16T06:14:24.826Z,13.27
2018-04-16T06:17:28.224Z,11.57
2018-04-16T06:20:31.469Z,17.07
2018-04-16T06:23:34.732Z,16.43
2018-04-16T06:26:38.019Z,15.47
2018-04-16T06:29:41.289Z,15.17
2018-04-16T06:32:44.609Z,14.17
2018-04-16T06:35:47.945Z,14.43
2018-04-16T06:38:51.506Z,13.03
2018-04-16T06:41:54.798Z,11.50
2018-04-16T06:44:58.145Z,9.93
2018-04-16T06:48:01.380Z,11.60
2018-04-16T06:51:04.639Z,13.07
2018-04-16T06:54:07.876Z,10.67
2018-04-16T06:57:11.155Z,11.10
2018-04-16T07:00:14.498Z,12.97
2018-04-16T07:03:17.773Z,13.47
2018-04-16T07:06:21.079Z,10.57
2018-04-16T07:09:24.310Z,9.97
2018-04-16T07:12:27.648Z,7.37
2018-04-16T07:15:30.920Z,7.70
2018-04-16T07:18:34.064Z,9.23
2018-04-16T07:21:37.356Z,12.47
2018-04-16T07:24:40.552Z,10.23
2018-04-16T07:27:43.819Z,6.27
2018-04-16T07:30:47.020Z,9.47
2018-04-16T07:33:50.239Z,8.63
2018-04-16T07:36:53.500Z,5.87
2018-04-16T07:39:57.773Z,6.87
2018-04-16T07:43:01.068Z,5.30
2018-04-16T07:46:04.350Z,6.13
2018-04-16T07:49:07.561Z,5.27
2018-04-16T07:52:10.857Z,6.67
2018-04-16T07:55:14.155Z,5.57
2018-04-16T07:58:17.417Z,9.07
2018-04-16T08:01:20.628Z,12.77
2018-04-16T08:04:23.916Z,8.10
2018-04-16T08:07:28.124Z,6.23
2018-04-16T08:10:31.352Z,6.33
2018-04-16T08:13:34.551Z,7.17
2018-04-16T08:16:37.840Z,5.03
2018-04-16T08:19:41.120Z,5.93
2018-04-16T08:22:44.450Z,4.57
2018-04-16T08:25:47.730Z,5.10
2018-04-16T08:28:51.032Z,4.50
2018-04-16T08:31:54.433Z,7.67
2018-04-16T08:34:58.946Z,6.00
2018-04-16T08:38:02.245Z,6.77
2018-04-16T08:41:05.567Z,3.27
2018-04-16T08:44:08.859Z,4.27
2018-04-16T08:47:12.185Z,4.17
2018-04-16T08:50:15.439Z,5.47
2018-04-16T08:53:18.749Z,4.93
2018-04-16T08:56:22.030Z,4.60
2018-04-16T08:59:26.017Z,2.83
2018-04-16T09:02:29.244Z,5.00
2018-04-16T09:05:32.534Z,5.40
2018-04-16T09:08:35.868Z,6.10
2018-04-16T09:11:38.993Z,4.53
2018-04-16T09:14:42.128Z,2.83
2018-04-16T09:17:45.324Z,4.90
2018-04-16T09:20:48.751Z,2.33
2018-04-16T09:23:52.060Z,3.20
2018-04-16T09:26:55.187Z,4.83
2018-04-16T09:29:59.512Z,2.10
2018-04-16T09:33:02.787Z,3.83
2018-04-16T09:36:06.127Z,5.00
2018-04-16T09:39:09.579Z,4.92
2018-04-16T09:42:12.904Z,3.50
2018-04-16T09:45:16.099Z,1.72
2018-04-16T09:48:19.424Z,4.87
2018-04-16T09:51:22.706Z,4.63
2018-04-16T09:54:27.115Z,3.90
2018-04-16T09:57:30.320Z,3.33
2018-04-16T10:00:37.797Z,5.53
2018-04-16T10:03:41.302Z,3.97
2018-04-16T10:06:44.635Z,3.00
2018-04-16T10:09:47.840Z,4.03
2018-04-16T10:12:51.065Z,3.27
2018-04-16T10:15:54.314Z,5.33
2018-04-16T10:18:57.744Z,2.93
2018-04-16T10:22:01.191Z,4.87
2018-04-16T10:25:04.523Z,3.25
2018-04-16T10:28:07.828Z,5.80
2018-04-16T10:31:11.119Z,4.67
2018-04-16T10:34:14.463Z,2.60
2018-04-16T10:37:17.816Z,2.53
2018-04-16T10:40:21.108Z,5.42
2018-04-16T10:43:24.354Z,2.42
2018-04-16T10:46:28.734Z,22.13
2018-04-16T10:49:32.004Z,6.72
2018-04-16T10:52:35.219Z,3.83
2018-04-16T10:55:38.457Z,1.72
2018-04-16T10:58:41.691Z,3.23
2018-04-16T11:01:45.005Z,2.22
2018-04-16T11:04:48.308Z,3.65
2018-04-16T11:07:51.546Z,1.95
2018-04-16T11:10:54.812Z,3.22
2018-04-16T11:13:59.261Z,1.40
2018-04-16T11:17:02.489Z,1.77
2018-04-16T11:20:05.789Z,4.17
2018-04-16T11:23:09.031Z,1.37
2018-04-16T11:26:12.277Z,2.30
2018-04-16T11:29:15.478Z,5.93
2018-04-16T11:32:18.731Z,3.20
2018-04-16T11:35:22.024Z,3.87
2018-04-16T11:38:25.238Z,2.90
2018-04-16T11:41:28.790Z,1.57
2018-04-16T11:44:32.356Z,1.67
2018-04-16T11:47:36.043Z,3.93
2018-04-16T11:50:39.239Z,4.03
2018-04-16T11:53:42.493Z,5.97
2018-04-16T11:56:45.772Z,2.53
2018-04-16T11:59:48.977Z,5.77
2018-04-16T12:02:52.267Z,2.60
2018-04-16T12:05:56.481Z,3.90
2018-04-16T12:08:59.700Z,6.60
2018-04-16T12:12:02.935Z,3.40
2018-04-16T12:15:06.137Z,5.90
2018-04-16T12:18:09.301Z,1.97
2018-04-16T12:21:13.535Z,3.47
2018-04-16T12:24:16.797Z,3.30
2018-04-16T12:27:20.112Z,2.85
2018-04-16T12:30:23.353Z,3.43
2018-04-16T12:33:27.111Z,4.27
2018-04-16T12:36:30.446Z,2.45
2018-04-16T12:39:33.693Z,6.40
2018-04-16T12:42:37.020Z,4.40
2018-04-16T12:45:40.296Z,7.83
2018-04-16T12:48:43.533Z,2.70
2018-04-16T12:51:46.796Z,9.43
2018-04-16T12:54:50.060Z,6.90
2018-04-16T12:57:53.371Z,4.55
2018-04-16T13:00:56.622Z,3.60
2018-04-16T13:03:59.771Z,4.37
2018-04-16T13:07:02.985Z,8.47
2018-04-16T13:10:06.269Z,22.23
2018-04-16T13:13:09.409Z,2.80
2018-04-16T13:16:12.564Z,6.53
2018-04-16T13:19:15.964Z,3.40
2018-04-16T13:22:19.257Z,5.58
2018-04-16T13:25:22.522Z,5.60
2018-04-16T13:28:26.328Z,2.60
2018-04-16T13:31:29.563Z,1.35
2018-04-16T13:34:32.873Z,2.50
2018-04-16T13:37:36.074Z,3.73
2018-04-16T13:40:39.570Z,2.57
2018-04-16T13:43:42.814Z,2.20
2018-04-16T13:46:46.080Z,6.73
2018-04-16T13:49:49.486Z,2.70
2018-04-16T13:52:52.668Z,1.67
2018-04-16T13:55:56.417Z,2.73
2018-04-16T13:58:59.587Z,2.10
2018-04-16T14:02:02.860Z,2.17
2018-04-16T14:05:06.139Z,1.32
2018-04-16T14:08:09.503Z,2.87
2018-04-16T14:11:12.681Z,3.33
2018-04-16T14:14:15.940Z,4.73
2018-04-16T14:17:19.248Z,2.90
2018-04-16T14:20:22.688Z,2.07
2018-04-16T14:23:26.418Z,2.17
2018-04-16T14:26:30.621Z,3.90
2018-04-16T14:29:33.881Z,5.25
2018-04-16T14:32:37.314Z,3.33
2018-04-16T14:35:40.546Z,3.72
2018-04-16T14:38:43.904Z,1.50
2018-04-16T14:41:47.230Z,4.13
2018-04-16T14:44:50.506Z,1.65
2018-04-16T14:47:53.835Z,3.20
2018-04-16T14:50:57.809Z,3.52
2018-04-16T14:54:01.040Z,3.50
2018-04-16T14:57:04.343Z,1.50
2018-04-16T15:00:07.669Z,5.08
2018-04-16T15:03:11.081Z,1.80
2018-04-16T15:06:14.358Z,2.17
2018-04-16T15:09:17.667Z,1.73
2018-04-16T15:12:20.934Z,2.33
2018-04-16T15:15:25.166Z,2.58
2018-04-16T15:18:28.586Z,2.10
2018-04-16T15:21:31.913Z,3.50
2018-04-16T15:24:35.149Z,2.75
2018-04-16T15:27:38.496Z,2.40
2018-04-16T15:30:41.754Z,1.97
2018-04-16T15:33:46.251Z,4.00
2018-04-16T15:36:49.585Z,2.55
2018-04-16T15:39:52.961Z,1.50
2018-04-16T15:42:57.122Z,2.40
2018-04-16T15:46:00.420Z,1.60
2018-04-16T15:49:03.732Z,1.57
2018-04-16T15:52:06.961Z,2.40
2018-04-16T15:55:10.212Z,2.50
2018-04-16T15:58:13.431Z,1.87
2018-04-16T16:01:16.585Z,3.83
2018-04-16T16:04:19.911Z,2.17
2018-04-16T16:07:23.033Z,2.60
2018-04-16T16:10:26.411Z,2.47
2018-04-16T16:13:29.608Z,3.62
2018-04-16T16:16:32.956Z,3.65
2018-04-16T16:19:36.156Z,4.67
2018-04-16T16:22:39.459Z,8.53
2018-04-16T16:25:42.685Z,2.47
2018-04-16T16:28:45.959Z,2.35
2018-04-16T16:31:49.264Z,3.60
2018-04-16T16:34:52.531Z,2.15
2018-04-16T16:37:56.067Z,3.83
2018-04-16T16:40:59.416Z,3.77
2018-04-16T16:44:02.716Z,2.67
2018-04-16T16:47:06.113Z,2.13
2018-04-16T16:50:09.525Z,4.12
2018-04-16T16:53:12.882Z,2.20
2018-04-16T16:56:16.235Z,2.10
2018-04-16T16:59:19.616Z,3.30
2018-04-16T17:02:22.961Z,2.03
2018-04-16T17:05:26.377Z,1.87
2018-04-16T17:08:29.729Z,1.95
2018-04-16T17:11:34.206Z,2.98
2018-04-16T17:14:37.581Z,2.23
2018-04-16T17:17:41.075Z,3.83
2018-04-16T17:20:44.251Z,3.20
2018-04-16T17:23:47.589Z,4.67
2018-04-16T17:26:50.876Z,1.50
2018-04-16T17:29:54.200Z,3.03
2018-04-16T17:32:57.536Z,2.55
2018-04-16T17:36:00.951Z,2.75
2018-04-16T17:39:05.599Z,2.50
2018-04-16T17:42:08.958Z,3.00
2018-04-16T17:45:12.341Z,4.07
2018-04-16T17:48:15.685Z,5.13
2018-04-16T17:51:18.884Z,2.23
2018-04-16T17:54:22.212Z,2.97
2018-04-16T17:57:25.557Z,3.27
2018-04-16T18:00:29.042Z,4.13
2018-04-16T18:03:32.489Z,1.60
2018-04-16T18:06:35.800Z,3.27
2018-04-16T18:09:39.089Z,2.75
2018-04-16T18:12:42.477Z,5.37
2018-04-16T18:15:45.832Z,3.87
2018-04-16T18:18:49.282Z,4.57
2018-04-16T18:21:52.512Z,7.95
2018-04-16T18:24:55.791Z,4.83
2018-04-16T18:27:59.128Z,4.78
2018-04-16T18:31:02.394Z,4.30
2018-04-16T18:34:05.762Z,6.33
2018-04-16T18:37:09.120Z,6.08
2018-04-16T18:40:12.393Z,3.37
2018-04-16T18:43:15.873Z,6.22
2018-04-16T18:46:19.203Z,6.25
2018-04-16T18:49:22.557Z,7.30
2018-04-16T18:52:26.052Z,4.30
2018-04-16T18:55:29.331Z,2.43
2018-04-16T18:58:32.483Z,2.43
2018-04-16T19:01:36.087Z,4.30
2018-04-16T19:04:39.331Z,2.30
2018-04-16T19:07:42.644Z,2.45
2018-04-16T19:10:45.883Z,4.50
2018-04-16T19:13:49.116Z,4.13
2018-04-16T19:16:52.421Z,3.87
2018-04-16T19:19:55.672Z,2.50
2018-04-16T19:22:59.591Z,3.30
2018-04-16T19:26:02.940Z,3.75
2018-04-16T19:29:06.183Z,3.90
2018-04-16T19:32:09.452Z,4.25
2018-04-16T19:35:12.712Z,3.90
2018-04-16T19:38:15.954Z,2.85
2018-04-16T19:41:19.311Z,6.22
2018-04-16T19:44:22.908Z,5.30
2018-04-16T19:47:26.193Z,4.70
2018-04-16T19:50:29.524Z,4.87
2018-04-16T19:53:32.820Z,6.47
2018-04-16T19:57:39.040Z,4.50
2018-04-16T20:00:42.388Z,4.53
2018-04-16T20:03:50.992Z,5.70
2018-04-16T20:06:54.284Z,4.30
2018-04-16T20:09:57.688Z,3.93
2018-04-16T20:13:01.063Z,4.53
2018-04-16T20:16:04.375Z,3.47
2018-04-16T20:19:07.759Z,4.33
2018-04-16T20:22:11.063Z,5.03
2018-04-16T20:25:14.333Z,3.47
2018-04-16T20:28:17.675Z,5.20
2018-04-16T20:31:21.049Z,6.78
2018-04-16T20:34:24.341Z,3.90
2018-04-16T20:37:27.898Z,7.42
2018-04-16T20:40:31.231Z,4.00
2018-04-16T20:43:34.552Z,7.95
2018-04-16T20:46:37.912Z,5.65
2018-04-16T20:49:41.253Z,3.52
2018-04-16T20:52:44.563Z,4.47
2018-04-16T20:55:47.759Z,5.08
2018-04-16T20:58:51.179Z,4.92
2018-04-16T21:01:57.368Z,5.28
2018-04-16T21:05:00.611Z,4.22
2018-04-16T21:08:04.030Z,5.40
2018-04-16T21:11:07.457Z,5.80
2018-04-16T21:14:10.800Z,5.97
2018-04-16T21:17:14.883Z,4.30
2018-04-16T21:20:18.319Z,7.92
2018-04-16T21:23:22.637Z,8.10
2018-04-16T21:26:25.932Z,3.93
2018-04-16T21:29:29.172Z,3.20
2018-04-16T21:32:32.634Z,5.87
2018-04-16T21:35:35.939Z,6.77
2018-04-16T21:38:39.572Z,4.57
2018-04-16T21:41:42.859Z,8.60
2018-04-16T21:44:46.058Z,4.92
2018-04-16T21:47:49.451Z,6.53
2018-04-16T21:50:52.735Z,8.73
2018-04-16T21:53:56.045Z,4.80
2018-04-16T21:56:59.435Z,4.40
2018-04-16T22:00:02.735Z,7.03
2018-04-16T22:03:06.142Z,5.77
2018-04-16T22:06:09.742Z,4.23
2018-04-16T22:09:13.119Z,5.30
2018-04-16T22:12:16.432Z,9.33
2018-04-16T22:15:19.751Z,5.78
2018-04-16T22:18:23.132Z,6.97
2018-04-16T22:21:26.570Z,6.00
2018-04-16T22:24:29.749Z,7.43
2018-04-16T22:27:33.132Z,4.60
2018-04-16T22:30:36.338Z,7.53
2018-04-16T22:33:39.602Z,4.63
2018-04-16T22:36:43.141Z,6.20
2018-04-16T22:39:46.296Z,7.13
2018-04-16T22:42:49.664Z,6.13
2018-04-16T22:45:53.134Z,6.37
2018-04-16T22:48:56.493Z,6.13
2018-04-16T22:51:59.940Z,4.50
2018-04-16T22:55:03.208Z,5.60
2018-04-16T22:58:06.545Z,6.50
2018-04-16T23:01:09.791Z,4.50
2018-04-16T23:04:12.975Z,5.37
2018-04-16T23:07:16.216Z,6.37
2018-04-16T23:10:19.505Z,8.13
2018-04-16T23:13:22.764Z,6.10
2018-04-16T23:16:26.091Z,6.00
2018-04-16T23:19:29.469Z,9.17
2018-04-16T23:22:32.679Z,5.47
2018-04-16T23:25:36.055Z,4.37
2018-04-16T23:28:39.309Z,5.15
2018-04-16T23:31:42.575Z,7.33
2018-04-16T23:34:45.968Z,5.42
2018-04-16T23:37:49.346Z,4.25
2018-04-16T23:40:52.587Z,7.20
2018-04-16T23:43:55.844Z,7.62
2018-04-16T23:47:00.025Z,5.53
2018-04-16T23:50:03.363Z,6.20
2018-04-16T23:53:06.613Z,4.07
2018-04-16T23:56:09.886Z,8.63
2018-04-16T23:59:13.200Z,5.63
